Terminal Aerodrome Forecast
Issued by NWS Tuscon, AZ

Home | Current Version | Previous Version | Text Only | Print | Product List | Glossary On
Versions: 1 2 3 4 5 6 7 8 9 10 11 12 13 14 15
007
FTUS45 KTWC 061733
TAFTUS
TAF
KTUS 061733Z 0618/0718 11014G22KT P6SM FEW250
     FM062200 10010G19KT P6SM SKC
     FM070200 09010KT P6SM SKC
     FM070700 13013G20KT P6SM SKC=

USA.gov is the U.S. government's official web portal to all federal, state and local government web resources and services.